Time;durP1;ratioP1;P1;durP2;ratioP2;P2;SDS_P1;SDS_P2;PMS_P1;PMS_P2;Temp;Humidity;BMP_temperature;BMP_pressure;BME280_temperature;BME280_humidity;BME280_pressure;Samples;Min_cycle;Max_cycle;Signal;HPM_P1;HPM_P2
2021/11/10 00:01:01;;;;;;;24.23;15.35;;;;;;;4.82;69.34;98926.19;10433372;28;20427;-75
2021/11/10 00:06:22;;;;;;;24.20;14.60;;;;;;;4.73;69.56;98919.06;10432714;28;20045;-76
2021/11/10 00:11:43;;;;;;;23.13;15.23;;;;;;;4.70;69.88;98925.63;10432537;28;20120;-76
2021/11/10 00:17:04;;;;;;;23.33;15.00;;;;;;;4.72;69.92;98917.53;10446165;28;20460;-77
2021/11/10 00:22:25;;;;;;;22.08;14.93;;;;;;;4.68;70.16;98911.56;10445974;28;20369;-77
2021/11/10 00:27:46;;;;;;;25.05;15.85;;;;;;;4.55;70.53;98908.78;10459706;28;20486;-75
2021/11/10 00:33:07;;;;;;;20.77;14.20;;;;;;;4.45;70.17;98910.44;10431468;28;20041;-76
2021/11/10 00:38:29;;;;;;;21.52;14.13;;;;;;;4.37;70.58;98907.53;10431956;28;20391;-75
2021/11/10 00:43:50;;;;;;;24.75;14.25;;;;;;;4.37;70.86;98909.53;10417390;28;20053;-76
2021/11/10 00:49:12;;;;;;;22.38;13.98;;;;;;;4.39;70.76;98907.00;10417911;28;20395;-76
2021/11/10 00:54:33;;;;;;;20.95;13.57;;;;;;;4.37;70.97;98907.53;10430907;28;20098;-75
2021/11/10 00:59:54;;;;;;;23.48;14.23;;;;;;;4.37;70.87;98910.28;10458225;28;20049;-75
2021/11/10 01:05:16;;;;;;;20.42;13.60;;;;;;;4.40;71.47;98903.69;10430479;28;20476;-74
2021/11/10 01:10:38;;;;;;;23.85;13.35;;;;;;;4.42;71.19;98908.69;10457739;28;20183;-76
2021/11/10 01:15:59;;;;;;;23.60;15.25;;;;;;;4.35;71.40;98901.03;10443492;28;20048;-76
2021/11/10 01:21:21;;;;;;;20.48;13.45;;;;;;;4.31;71.63;98895.78;10443508;28;20056;-75
2021/11/10 01:26:42;;;;;;;20.65;13.52;;;;;;;4.26;71.71;98872.50;10429607;28;20503;-75
2021/11/10 01:32:04;;;;;;;22.50;13.93;;;;;;;4.27;71.23;98871.22;10416264;28;20043;-75
2021/11/10 01:37:25;;;;;;;21.08;12.68;;;;;;;4.14;71.66;98865.63;10429516;28;20475;-73
2021/11/10 01:42:49;;;;;;;20.95;13.52;;;;;;;4.11;71.63;98861.16;10429575;28;20117;-75
2021/11/10 01:48:13;;;;;;;19.38;12.77;;;;;;;4.11;72.02;98863.91;10415872;28;20136;-75
2021/11/10 01:53:34;;;;;;;19.58;13.13;;;;;;;4.05;72.29;98854.94;10442013;28;20094;-76
2021/11/10 01:58:58;;;;;;;23.35;12.88;;;;;;;4.02;72.28;98864.28;10415820;28;20041;-74
2021/11/10 02:04:21;;;;;;;17.38;12.80;;;;;;;4.04;71.94;98861.75;10441806;28;20044;-77
2021/11/10 02:09:43;;;;;;;20.67;13.88;;;;;;;4.03;72.47;98849.19;10428108;28;20408;-77
2021/11/10 02:15:09;;;;;;;21.45;13.10;;;;;;;4.05;72.03;98848.66;10415178;28;20045;-76
2021/11/10 02:20:33;;;;;;;19.73;13.25;;;;;;;4.00;72.42;98842.72;10415024;28;20041;-75
2021/11/10 02:26:00;;;;;;;20.02;13.07;;;;;;;3.97;72.06;98838.25;10415528;28;20056;-76
2021/11/10 02:31:21;;;;;;;19.98;12.60;;;;;;;3.94;72.26;98830.25;10455809;28;20552;-76
2021/11/10 02:36:42;;;;;;;19.88;12.90;;;;;;;3.90;72.58;98807.72;10427596;28;20447;-75
2021/11/10 02:42:04;;;;;;;18.15;11.50;;;;;;;3.78;72.08;98795.31;10413945;28;20427;-76
2021/11/10 02:47:26;;;;;;;19.77;12.93;;;;;;;3.75;72.00;98797.09;10428072;28;20044;-75
2021/11/10 02:52:47;;;;;;;20.50;13.30;;;;;;;3.70;72.39;98795.19;10426837;28;20053;-76
2021/11/10 02:58:08;;;;;;;19.15;12.98;;;;;;;3.68;73.03;98790.19;10440939;28;20045;-75
2021/11/10 03:03:29;;;;;;;21.42;13.85;;;;;;;3.73;73.05;98796.88;10441882;28;20048;-74
2021/11/10 03:08:50;;;;;;;24.10;13.73;;;;;;;3.65;72.60;98788.44;10448814;28;20045;-75
2021/11/10 03:14:12;;;;;;;24.83;15.23;;;;;;;3.61;73.22;98792.78;10434231;28;20518;-78
2021/11/10 03:19:33;;;;;;;19.33;12.70;;;;;;;3.58;72.74;98778.03;10448245;28;20458;-75
2021/11/10 03:24:55;;;;;;;20.60;13.13;;;;;;;3.60;73.16;98786.53;10461646;28;20477;-75
2021/11/10 03:30:19;;;;;;;22.35;14.25;;;;;;;3.58;73.25;98791.81;10434794;28;20041;-77
2021/11/10 03:35:52;;;;;;;19.90;13.10;;;;;;;3.57;73.05;98792.31;10436905;28;20049;-76
2021/11/10 03:41:14;;;;;;;22.00;14.00;;;;;;;3.58;73.27;98789.06;10434166;28;20037;-75
2021/11/10 03:46:37;;;;;;;22.05;13.77;;;;;;;3.60;73.52;98778.22;10433425;28;20045;-77
2021/11/10 03:52:02;;;;;;;22.35;14.15;;;;;;;3.58;73.37;98772.50;10447278;28;20063;-75
2021/11/10 03:57:23;;;;;;;21.48;13.90;;;;;;;3.59;73.25;98778.75;10432861;28;20044;-76
2021/11/10 04:02:45;;;;;;;20.23;13.68;;;;;;;3.50;73.19;98768.84;10432207;28;20048;-75
2021/11/10 04:08:18;;;;;;;19.52;12.60;;;;;;;3.47;72.64;98769.84;10448496;28;20543;-76
2021/11/10 04:13:39;;;;;;;20.48;13.68;;;;;;;3.44;73.28;98773.66;10432368;28;20045;-76
2021/11/10 04:19:00;;;;;;;20.08;12.75;;;;;;;3.40;73.69;98767.72;10445251;28;20502;-75
2021/11/10 04:24:23;;;;;;;19.50;12.85;;;;;;;3.36;73.09;98770.75;10432296;28;20507;-75
2021/11/10 04:29:48;;;;;;;20.77;13.30;;;;;;;3.30;72.91;98769.34;10418403;28;20049;-76
2021/11/10 04:35:11;;;;;;;21.92;14.07;;;;;;;3.20;73.03;98765.47;10418607;28;20086;-76
2021/11/10 04:40:33;;;;;;;20.65;13.05;;;;;;;3.13;73.30;98758.50;10445186;28;20052;-76
2021/11/10 04:46:06;;;;;;;19.60;13.32;;;;;;;3.13;73.17;98762.00;10444994;28;20480;-75
2021/11/10 04:51:27;;;;;;;21.42;13.18;;;;;;;3.12;73.02;98759.78;10446067;28;20053;-76
2021/11/10 04:56:48;;;;;;;21.13;12.60;;;;;;;3.11;73.60;98759.03;10430769;28;20048;-76
2021/11/10 05:07:34;;;;;;;19.80;12.43;;;;;;;3.04;73.40;98754.09;10459164;28;20049;-75
2021/11/10 05:12:55;;;;;;;21.73;13.63;;;;;;;3.01;73.26;98754.41;10443688;28;20506;-74
2021/11/10 05:18:19;;;;;;;16.55;12.15;;;;;;;2.99;73.19;98754.91;10430492;28;20044;-77
2021/11/10 05:23:40;;;;;;;20.13;13.10;;;;;;;2.98;73.12;98750.63;10430363;28;20497;-75
2021/11/10 05:29:02;;;;;;;19.55;12.43;;;;;;;2.91;72.59;98742.97;10428710;28;20503;-74
2021/11/10 05:34:23;;;;;;;19.20;12.48;;;;;;;2.82;73.78;98746.81;10429446;28;20044;-74
2021/11/10 05:39:44;;;;;;;23.80;12.88;;;;;;;2.89;73.53;98748.25;10443041;28;20488;-76
2021/11/10 05:45:06;;;;;;;26.23;15.55;;;;;;;2.94;73.49;98752.97;10428708;28;20033;-76
2021/11/10 05:50:27;;;;;;;20.50;13.63;;;;;;;2.91;73.20;98754.00;10414355;28;20139;-75
2021/11/10 05:55:52;;;;;;;21.60;12.48;;;;;;;2.96;73.58;98755.94;10428478;28;20049;-77
2021/11/10 06:01:13;;;;;;;23.20;14.02;;;;;;;3.01;73.26;98749.63;10429784;28;20041;-77
2021/11/10 06:06:34;;;;;;;20.25;13.60;;;;;;;3.08;72.93;98754.53;10442043;28;20377;-79
2021/11/10 06:11:56;;;;;;;21.77;14.30;;;;;;;3.11;72.57;98769.31;10473989;28;20123;-75
2021/11/10 06:17:18;;;;;;;23.95;13.95;;;;;;;3.16;73.06;98758.19;10455594;28;20044;-77
2021/11/10 06:22:39;;;;;;;20.80;13.10;;;;;;;3.45;72.51;98758.59;10511525;28;20078;-75
2021/11/10 06:27:59;;;;;;;22.48;13.77;;;;;;;4.35;72.45;98758.03;10483500;28;20095;-75
2021/11/10 06:33:24;;;;;;;22.73;14.95;;;;;;;6.02;70.75;98765.03;10497663;28;20064;-76
2021/11/10 06:38:46;;;;;;;27.98;18.33;;;;;;;6.93;68.50;98769.81;10498898;28;20048;-75
2021/11/10 06:44:07;;;;;;;23.02;18.08;;;;;;;7.44;67.77;98783.06;10491629;28;20489;-75
2021/11/10 06:49:28;;;;;;;22.10;16.88;;;;;;;8.09;66.59;98789.19;10504851;28;20132;-76
2021/11/10 06:54:53;;;;;;;23.85;16.65;;;;;;;9.41;64.95;98790.06;10504632;28;20484;-75
2021/11/10 07:00:15;;;;;;;21.48;14.57;;;;;;;9.53;63.69;98801.53;10490466;28;20095;-75
2021/11/10 07:05:37;;;;;;;19.23;15.57;;;;;;;9.95;63.52;98812.16;10479084;28;20059;-75
2021/11/10 07:10:58;;;;;;;21.67;14.88;;;;;;;10.42;62.56;98805.75;10463893;28;20047;-75
2021/11/10 07:16:19;;;;;;;23.83;14.75;;;;;;;11.41;60.54;98815.31;10489676;28;20094;-74
2021/11/10 07:21:40;;;;;;;24.27;18.77;;;;;;;11.85;59.94;98823.03;10489370;28;20075;-76
2021/11/10 07:27:02;;;;;;;24.23;17.13;;;;;;;11.00;60.46;98819.63;10489325;28;20045;-75
2021/11/10 07:32:24;;;;;;;19.63;13.70;;;;;;;10.88;60.02;98816.56;10503158;28;20041;-75
2021/11/10 07:37:46;;;;;;;22.50;14.52;;;;;;;10.20;58.87;98817.78;10488805;28;20044;-74
2021/11/10 07:43:08;;;;;;;23.08;13.18;;;;;;;10.37;59.49;98819.94;10489065;28;20048;-76
2021/11/10 07:48:29;;;;;;;24.73;16.23;;;;;;;10.69;59.14;98819.88;10502132;28;20109;-76
2021/11/10 07:53:50;;;;;;;16.83;11.95;;;;;;;10.35;58.46;98830.94;10501439;28;20044;-75
2021/11/10 07:59:11;;;;;;;19.00;11.30;;;;;;;11.02;56.96;98819.81;10488213;28;20036;-74
2021/11/10 08:04:33;;;;;;;16.48;11.75;;;;;;;12.50;55.80;98816.91;10515017;28;20483;-74
2021/11/10 08:09:54;;;;;;;18.80;11.65;;;;;;;13.83;50.79;98814.19;10486639;28;20384;-74
2021/11/10 08:15:16;;;;;;;16.88;12.35;;;;;;;14.00;50.88;98822.44;10501414;28;20047;-75
2021/11/10 08:20:37;;;;;;;16.85;11.80;;;;;;;13.80;49.46;98814.63;10487002;28;20403;-74
2021/11/10 08:25:59;;;;;;;20.70;13.32;;;;;;;13.21;50.14;98824.34;10487216;28;20051;-74
2021/11/10 08:31:20;;;;;;;20.92;12.40;;;;;;;13.35;47.04;98834.56;10459388;28;20053;-74
2021/11/10 08:36:41;;;;;;;20.70;13.60;;;;;;;14.86;47.53;98831.19;10500797;28;20071;-75
2021/11/10 08:42:04;;;;;;;20.90;12.23;;;;;;;14.83;46.41;98830.31;10486698;28;20511;-75
2021/11/10 08:47:25;;;;;;;14.88;12.10;;;;;;;14.56;47.74;98832.63;10472827;28;20044;-73
2021/11/10 08:52:46;;;;;;;17.77;11.40;;;;;;;15.50;48.02;98836.84;10499581;28;20496;-73
2021/11/10 08:58:08;;;;;;;16.13;11.27;;;;;;;15.99;47.02;98832.31;10471690;28;20110;-73
2021/11/10 09:03:28;;;;;;;14.80;11.65;;;;;;;19.21;41.27;98830.94;10485050;28;20051;-76
2021/11/10 09:08:50;;;;;;;11.95;9.30;;;;;;;20.41;33.23;98824.69;10485028;28;20055;-77
2021/11/10 09:14:11;;;;;;;10.98;8.80;;;;;;;19.46;36.01;98813.06;10484652;28;20041;-74
2021/11/10 09:19:32;;;;;;;11.18;9.20;;;;;;;17.99;35.65;98808.22;10470571;28;20041;-73
2021/11/10 09:24:53;;;;;;;11.48;9.55;;;;;;;17.50;37.26;98806.84;10498602;28;20037;-74
2021/11/10 09:30:15;;;;;;;13.13;9.10;;;;;;;17.73;35.99;98795.47;10433534;28;20480;-72
2021/11/10 09:35:37;;;;;;;11.40;8.97;;;;;;;18.64;34.63;98824.41;10442747;28;20095;-75
2021/11/10 09:41:01;;;;;;;13.18;9.10;;;;;;;20.01;34.36;98798.75;10428091;28;20371;-74
2021/11/10 09:46:22;;;;;;;12.95;9.27;;;;;;;20.17;32.39;98810.09;10429270;28;20064;-74
2021/11/10 09:51:43;;;;;;;15.82;9.80;;;;;;;18.52;32.80;98794.13;10428079;28;20052;-78
2021/11/10 09:57:04;;;;;;;15.35;9.98;;;;;;;17.15;34.41;98799.91;10441732;28;20045;-75
2021/11/10 10:02:26;;;;;;;13.48;9.45;;;;;;;15.95;36.20;98792.63;10427990;28;20480;-74
2021/11/10 10:07:49;;;;;;;11.95;9.73;;;;;;;16.16;36.29;98782.63;10427996;28;20086;-79
2021/11/10 10:13:10;;;;;;;13.80;10.25;;;;;;;16.08;36.07;98790.59;10427368;28;20052;-79
2021/11/10 10:18:31;;;;;;;12.30;9.70;;;;;;;16.53;35.96;98777.16;10441061;28;20041;-80
2021/11/10 10:23:51;;;;;;;15.45;10.27;;;;;;;18.71;33.27;98775.31;10413910;28;20056;-76
2021/11/10 10:29:14;;;;;;;13.25;9.70;;;;;;;19.25;32.47;98766.03;10473054;28;20465;-74
2021/11/10 10:34:38;;;;;;;10.95;8.55;;;;;;;17.45;33.54;98769.91;10469416;28;20094;-75
2021/11/10 10:40:16;;;;;;;12.50;9.15;;;;;;;16.24;34.97;98761.34;10454425;28;20056;-78
2021/11/10 10:45:44;;;;;;;12.90;8.38;;;;;;;15.88;35.77;98765.44;10483446;28;20195;-75
2021/11/10 10:51:10;;;;;;;14.18;9.20;;;;;;;15.31;37.00;98770.22;10496603;28;20392;-78
2021/11/10 10:56:36;;;;;;;11.30;8.82;;;;;;;15.43;37.21;98762.56;10482638;28;20048;-76
2021/11/10 11:01:59;;;;;;;10.77;8.70;;;;;;;15.68;36.88;98742.38;10469534;28;20037;-76
2021/11/10 11:07:24;;;;;;;11.75;8.73;;;;;;;15.06;37.08;98745.41;10496144;28;20040;-79
2021/11/10 11:12:53;;;;;;;12.55;9.25;;;;;;;14.32;38.39;98741.81;10468671;28;20476;-80
2021/11/10 11:18:20;;;;;;;13.55;9.60;;;;;;;13.50;40.16;98720.59;10482747;28;20032;-83
2021/11/10 11:23:41;;;;;;;14.85;10.05;;;;;;;12.87;40.42;98725.91;10469513;28;20044;-80
2021/11/10 11:29:21;;;;;;;12.10;9.10;;;;;;;13.09;41.03;98735.19;10502180;28;20051;-80
2021/11/10 11:35:06;;;;;;;11.93;9.57;;;;;;;13.29;41.61;98730.34;10458726;28;20037;-79
2021/11/10 11:40:29;;;;;;;12.13;9.15;;;;;;;13.82;40.75;98731.34;10454539;28;20045;-78
2021/11/10 11:45:51;;;;;;;13.48;10.38;;;;;;;13.55;40.60;98734.34;10434168;28;20102;-80
2021/11/10 11:51:11;;;;;;;13.20;10.13;;;;;;;12.93;41.81;98727.66;10420179;28;20470;-77
2021/11/10 11:56:32;;;;;;;14.50;10.10;;;;;;;12.55;42.62;98720.69;10418572;28;20057;-76
2021/11/10 12:01:55;;;;;;;12.80;10.70;;;;;;;12.52;42.66;98716.97;10432242;28;20045;-76
2021/11/10 12:07:58;;;;;;;13.15;9.73;;;;;;;12.64;43.22;98708.75;10432559;28;20053;-76
2021/11/10 12:13:23;;;;;;;16.85;10.43;;;;;;;12.59;44.08;98706.97;10459697;28;20041;-76
2021/11/10 12:18:49;;;;;;;12.20;10.05;;;;;;;12.70;43.19;98689.59;10418729;28;20045;-78
2021/11/10 12:24:11;;;;;;;12.73;10.38;;;;;;;12.70;43.24;98689.59;10418751;28;20052;-79
2021/11/10 12:29:39;;;;;;;14.48;11.25;;;;;;;12.73;43.39;98687.69;10447046;28;20040;-77
2021/11/10 12:35:01;;;;;;;15.10;10.63;;;;;;;12.68;44.15;98680.31;10467123;28;20044;-80
2021/11/10 12:40:24;;;;;;;14.18;11.38;;;;;;;12.43;45.14;98672.88;10449649;28;20094;-80
2021/11/10 12:45:57;;;;;;;18.13;12.10;;;;;;;12.35;45.03;98666.66;10459117;28;20044;-77
2021/11/10 12:51:25;;;;;;;18.95;12.55;;;;;;;12.25;45.02;98665.91;10484015;28;20141;-79
2021/11/10 12:56:51;;;;;;;16.73;11.55;;;;;;;12.09;44.97;98648.66;10479179;28;20415;-80
2021/11/10 13:02:16;;;;;;;15.55;11.52;;;;;;;12.03;45.84;98653.78;10449402;28;20041;-77
2021/11/10 13:07:45;;;;;;;15.38;11.68;;;;;;;11.84;45.56;98648.09;10431068;28;20049;-80
2021/11/10 13:13:12;;;;;;;16.50;11.90;;;;;;;11.66;47.22;98639.00;10445068;28;20044;-72
2021/11/10 13:18:32;;;;;;;15.27;12.27;;;;;;;11.67;47.32;98641.22;10416230;28;20044;-74
2021/11/10 13:24:07;;;;;;;17.10;11.85;;;;;;;11.43;47.02;98644.94;10457707;28;20067;-75
2021/11/10 13:29:50;;;;;;;15.75;12.07;;;;;;;11.38;46.89;98634.75;10444670;28;20049;-74
2021/11/10 13:35:11;;;;;;;17.95;12.27;;;;;;;11.39;48.66;98625.81;10429023;28;20045;-76
2021/11/10 13:40:32;;;;;;;16.63;12.25;;;;;;;11.47;47.96;98636.84;10455923;28;20041;-75
2021/11/10 13:45:53;;;;;;;17.85;12.18;;;;;;;11.29;47.94;98641.00;10456871;28;20045;-74
2021/11/10 13:51:29;;;;;;;18.45;11.90;;;;;;;11.28;48.55;98626.31;10427335;28;20060;-74
2021/11/10 13:57:19;;;;;;;17.35;12.13;;;;;;;11.09;49.45;98629.72;10456760;28;20041;-75
2021/11/10 14:02:46;;;;;;;16.45;12.43;;;;;;;11.18;49.62;98629.03;10456331;28;20041;-74
2021/11/10 14:08:09;;;;;;;15.38;11.75;;;;;;;11.09;49.12;98626.91;10456589;28;20072;-73
2021/11/10 14:13:31;;;;;;;18.20;13.13;;;;;;;11.09;49.00;98624.13;10456570;28;20064;-75
2021/11/10 14:18:55;;;;;;;18.73;13.10;;;;;;;10.96;49.40;98629.34;10442428;28;20399;-74
2021/11/10 14:24:23;;;;;;;18.67;13.35;;;;;;;10.83;49.24;98630.41;10455827;28;20040;-75
2021/11/10 14:29:44;;;;;;;20.42;13.68;;;;;;;10.73;49.97;98621.22;10455697;28;20041;-75
2021/11/10 14:35:05;;;;;;;19.27;14.57;;;;;;;10.28;50.19;98618.31;10427726;28;20091;-74
2021/11/10 14:40:48;;;;;;;27.65;19.92;;;;;;;9.89;50.83;98616.41;10455369;28;20069;-74
2021/11/10 14:46:24;;;;;;;21.63;14.82;;;;;;;9.80;51.49;98623.34;10455788;28;20049;-74
2021/11/10 14:51:58;;;;;;;20.45;13.77;;;;;;;9.74;51.65;98631.94;10429363;28;20053;-74
2021/11/10 14:57:23;;;;;;;26.08;15.20;;;;;;;9.59;51.33;98629.25;10427969;28;20049;-73
2021/11/10 15:02:45;;;;;;;23.88;15.23;;;;;;;9.50;52.22;98627.09;10448201;28;20052;-76
2021/11/10 15:08:08;;;;;;;22.75;13.95;;;;;;;9.36;51.64;98623.84;10463126;28;20472;-74
2021/11/10 15:13:38;;;;;;;19.63;14.45;;;;;;;9.19;53.15;98623.75;10449687;28;20101;-75
2021/11/10 15:18:59;;;;;;;21.65;14.95;;;;;;;9.00;52.48;98620.66;10449216;28;20055;-75
2021/11/10 15:24:21;;;;;;;20.60;14.25;;;;;;;8.80;53.05;98631.50;10462950;28;20442;-74
2021/11/10 15:29:42;;;;;;;25.48;16.20;;;;;;;8.65;53.56;98637.09;10462434;28;20561;-76
2021/11/10 15:35:03;;;;;;;24.80;15.95;;;;;;;8.52;53.86;98631.78;10460737;28;20040;-75
2021/11/10 15:40:25;;;;;;;19.65;15.40;;;;;;;8.40;54.17;98639.03;10490077;28;20071;-74
2021/11/10 15:45:46;;;;;;;20.60;14.23;;;;;;;8.29;54.55;98640.84;10503822;28;20040;-73
2021/11/10 15:51:06;;;;;;;28.15;17.55;;;;;;;8.15;54.81;98636.78;10454043;28;20108;-73
2021/11/10 15:56:27;;;;;;;22.92;16.42;;;;;;;8.03;55.27;98630.88;10461851;28;20392;-80
2021/11/10 16:01:48;;;;;;;23.02;15.00;;;;;;;7.91;55.29;98640.13;10462469;28;20041;-81
2021/11/10 16:07:10;;;;;;;23.83;16.30;;;;;;;7.69;55.37;98642.34;10434260;28;20041;-75
2021/11/10 16:12:31;;;;;;;22.45;15.00;;;;;;;7.65;55.94;98644.00;10432627;28;20071;-75
2021/11/10 16:17:51;;;;;;;21.00;15.10;;;;;;;7.56;56.26;98639.72;10460607;28;20388;-78
2021/11/10 16:23:16;;;;;;;25.58;16.95;;;;;;;7.45;56.41;98653.97;10436370;28;20040;-76
2021/11/10 16:28:46;;;;;;;51.45;30.70;;;;;;;7.34;57.00;98668.22;10472758;28;20044;-76
2021/11/10 16:34:07;;;;;;;52.85;30.80;;;;;;;7.16;57.09;98665.19;10475840;28;20044;-84
2021/11/10 16:39:28;;;;;;;47.60;28.63;;;;;;;7.10;57.69;98672.19;10473475;28;20391;-83
2021/11/10 16:44:50;;;;;;;34.38;21.45;;;;;;;7.11;57.97;98668.84;10446069;28;20098;-81
2021/11/10 16:50:10;;;;;;;34.72;23.27;;;;;;;7.07;58.52;98664.97;10431307;28;20057;-84
2021/11/10 16:55:32;;;;;;;31.08;19.30;;;;;;;7.04;58.65;98657.72;10431366;28;20045;-78
2021/11/10 17:00:53;;;;;;;27.45;18.75;;;;;;;6.97;59.18;98650.13;10431559;28;20045;-81
2021/11/10 17:06:17;;;;;;;25.70;17.73;;;;;;;6.89;59.08;98648.03;10432099;28;20044;-82
2021/11/10 17:11:38;;;;;;;28.00;17.73;;;;;;;6.87;59.64;98638.78;10430759;28;20049;-78
2021/11/10 17:17:02;;;;;;;29.15;20.38;;;;;;;6.82;59.63;98617.47;10430627;28;20044;-82
2021/11/10 17:22:23;;;;;;;28.20;17.77;;;;;;;6.78;60.52;98601.19;10430723;28;20044;-80
2021/11/10 17:27:44;;;;;;;32.88;19.38;;;;;;;6.76;60.41;98611.34;10430262;28;20052;-83
2021/11/10 17:33:12;;;;;;;33.33;21.65;;;;;;;6.64;60.44;98610.16;10434374;28;20045;-87
2021/11/10 17:38:33;;;;;;;36.40;21.02;;;;;;;6.56;60.74;98608.13;10431766;28;20091;-80
2021/11/10 17:43:54;;;;;;;40.70;23.48;;;;;;;6.49;61.31;98611.59;10430712;28;20047;-80
2021/11/10 17:49:15;;;;;;;34.15;21.55;;;;;;;6.45;61.38;98618.75;10430624;28;20135;-79
2021/11/10 17:54:38;;;;;;;33.95;20.15;;;;;;;6.40;61.47;98648.16;10444308;28;20052;-84
2021/11/10 18:00:00;;;;;;;31.33;19.58;;;;;;;6.34;61.95;98650.31;10431305;28;20049;-80
2021/11/10 18:05:31;;;;;;;32.95;20.95;;;;;;;6.27;62.29;98643.44;10445170;28;20048;-83
2021/11/10 18:10:52;;;;;;;34.92;23.02;;;;;;;6.19;62.10;98642.66;10416073;28;20049;-80
2021/11/10 18:16:13;;;;;;;36.05;22.90;;;;;;;6.09;62.55;98635.38;10429341;28;20047;-82
2021/11/10 18:21:34;;;;;;;35.92;22.63;;;;;;;6.02;62.97;98631.97;10428913;28;20049;-82
2021/11/10 18:26:55;;;;;;;34.83;22.40;;;;;;;6.00;63.36;98636.59;10429214;28;20469;-78
2021/11/10 18:32:16;;;;;;;39.40;26.35;;;;;;;5.95;63.60;98638.19;10442423;28;20053;-82
2021/11/10 18:37:38;;;;;;;37.70;25.25;;;;;;;5.89;63.35;98637.59;10421503;28;20098;-81
2021/11/10 18:42:59;;;;;;;34.40;21.35;;;;;;;5.89;63.70;98640.34;10423920;28;20041;-81
2021/11/10 18:48:22;;;;;;;31.65;21.92;;;;;;;5.79;63.93;98635.81;10450869;28;20051;-77
2021/11/10 18:53:44;;;;;;;34.65;23.40;;;;;;;5.74;64.01;98618.06;10437214;28;20068;-82
2021/11/10 18:59:08;;;;;;;34.17;21.88;;;;;;;5.66;64.10;98625.53;10436671;28;20052;-81
2021/11/10 19:04:36;;;;;;;35.23;23.80;;;;;;;5.63;63.97;98619.06;10436502;28;20037;-84
2021/11/10 19:21:26;;;;;;;35.17;24.13;;;;;;;5.51;64.76;98645.53;10439955;28;20377;-82
2021/11/10 19:26:49;;;;;;;35.63;22.75;;;;;;;5.42;64.77;98638.44;10451272;28;20118;-81
2021/11/10 19:32:10;;;;;;;36.08;24.13;;;;;;;5.36;64.78;98645.38;10476192;28;20120;-80
2021/11/10 19:37:33;;;;;;;46.85;29.35;;;;;;;5.30;64.84;98641.97;10434555;28;20045;-83
2021/11/10 19:42:55;;;;;;;50.45;29.85;;;;;;;5.24;65.34;98644.91;10435099;28;20045;-83
2021/11/10 19:48:16;;;;;;;42.40;26.45;;;;;;;5.18;65.18;98647.03;10433680;28;20120;-81
2021/11/10 19:53:38;;;;;;;42.90;26.80;;;;;;;5.12;65.80;98646.44;10434715;28;20045;-81
2021/11/10 19:58:59;;;;;;;45.90;30.83;;;;;;;5.09;65.76;98650.25;10475700;28;20053;-82
2021/11/10 20:04:20;;;;;;;46.45;31.33;;;;;;;5.11;65.86;98659.50;10461732;28;20484;-82
2021/11/10 20:09:41;;;;;;;44.55;29.95;;;;;;;5.10;66.10;98657.25;10433741;28;20467;-81
2021/11/10 20:15:03;;;;;;;47.45;28.73;;;;;;;5.09;66.26;98642.69;10434620;28;20051;-84
2021/11/10 20:20:27;;;;;;;41.40;27.85;;;;;;;5.10;66.67;98651.72;10434160;28;20044;-78
2021/11/10 20:25:48;;;;;;;47.22;29.10;;;;;;;5.05;65.98;98677.50;10433575;28;20468;-82
2021/11/10 20:31:10;;;;;;;59.60;37.75;;;;;;;5.02;66.29;98678.56;10433156;28;20095;-81
2021/11/10 20:36:32;;;;;;;54.22;34.25;;;;;;;4.95;66.35;98677.22;10437407;28;20044;-82
2021/11/10 20:41:52;;;;;;;41.85;27.92;;;;;;;4.87;66.44;98673.59;10473017;28;20040;-80
2021/11/10 20:47:13;;;;;;;40.50;25.90;;;;;;;4.80;66.52;98663.91;10487052;28;20040;-83
2021/11/10 20:52:34;;;;;;;36.15;24.40;;;;;;;4.79;66.51;98654.13;10473307;28;20052;-79
2021/11/10 20:57:55;;;;;;;42.47;26.70;;;;;;;4.75;66.89;98645.41;10472434;28;20514;-81
2021/11/10 21:03:18;;;;;;;42.33;26.15;;;;;;;4.75;66.82;98645.41;10486510;28;20635;-78
2021/11/10 21:08:39;;;;;;;38.28;24.92;;;;;;;4.69;67.24;98647.53;10472754;28;20052;-80
2021/11/10 21:14:00;;;;;;;44.55;27.58;;;;;;;4.68;67.37;98639.78;10485647;28;20493;-81
2021/11/10 21:19:20;;;;;;;41.42;26.98;;;;;;;4.66;67.29;98634.78;10485303;28;20036;-77
2021/11/10 21:24:42;;;;;;;37.75;26.15;;;;;;;4.62;67.33;98634.34;10486610;28;20041;-76
2021/11/10 21:30:04;;;;;;;38.08;25.33;;;;;;;4.54;66.93;98633.53;10471600;28;20118;-78
2021/11/10 21:35:32;;;;;;;41.25;25.98;;;;;;;4.49;68.05;98629.59;10484816;28;20037;-79
2021/11/10 21:40:53;;;;;;;42.13;25.15;;;;;;;4.51;67.49;98631.81;10470001;28;20051;-76
2021/11/10 21:46:15;;;;;;;40.05;25.08;;;;;;;4.50;67.69;98622.03;10482396;28;20109;-76
2021/11/10 21:51:37;;;;;;;37.92;23.92;;;;;;;4.46;67.66;98632.69;10484267;28;20048;-77
2021/11/10 21:56:59;;;;;;;37.15;24.02;;;;;;;4.38;68.24;98624.28;10437365;28;20496;-77
2021/11/10 22:02:20;;;;;;;36.42;23.70;;;;;;;4.31;67.33;98614.59;10469931;28;20052;-77
2021/11/10 22:07:41;;;;;;;38.38;24.35;;;;;;;4.26;67.88;98623.00;10470032;28;20047;-77
2021/11/10 22:13:03;;;;;;;37.25;25.23;;;;;;;4.26;68.33;98612.69;10480621;28;20132;-76
2021/11/10 22:18:24;;;;;;;38.33;24.58;;;;;;;4.23;67.96;98613.72;10452184;28;20125;-77
2021/11/10 22:23:45;;;;;;;35.97;23.17;;;;;;;4.20;68.05;98620.31;10481479;28;20060;-77
2021/11/10 22:29:05;;;;;;;34.95;22.65;;;;;;;4.13;68.40;98607.13;10456052;28;20476;-76
2021/11/10 22:34:29;;;;;;;39.70;25.70;;;;;;;4.08;68.45;98610.75;10455405;28;20441;-76
2021/11/10 22:39:57;;;;;;;35.78;24.00;;;;;;;4.09;68.17;98609.47;10471395;28;20075;-76
2021/11/10 22:45:19;;;;;;;39.88;25.27;;;;;;;4.07;68.19;98611.28;10456677;28;20041;-77
2021/11/10 22:50:43;;;;;;;40.78;25.65;;;;;;;4.12;69.08;98630.53;10483785;28;20419;-75
2021/11/10 22:56:14;;;;;;;39.55;25.52;;;;;;;4.11;68.65;98631.06;10472446;28;20053;-75
2021/11/10 23:01:36;;;;;;;38.87;25.60;;;;;;;4.03;67.94;98622.66;10483453;28;20041;-75
2021/11/10 23:07:03;;;;;;;40.75;25.20;;;;;;;4.00;68.84;98623.72;10496527;28;20049;-75
2021/11/10 23:12:26;;;;;;;43.38;26.90;;;;;;;4.01;69.22;98616.91;10469319;28;20141;-76
2021/11/10 23:17:51;;;;;;;42.80;26.13;;;;;;;4.06;69.10;98612.56;10483571;28;20090;-77
2021/11/10 23:23:22;;;;;;;44.72;27.23;;;;;;;4.08;69.14;98612.78;10487855;28;20139;-76
2021/11/10 23:28:56;;;;;;;47.58;27.27;;;;;;;4.05;69.35;98620.09;10490341;28;20049;-76
2021/11/10 23:34:25;;;;;;;52.10;28.40;;;;;;;4.07;69.67;98622.34;10465301;28;20070;-76
2021/11/10 23:39:54;;;;;;;50.38;28.50;;;;;;;4.14;69.02;98614.16;10490847;28;20062;-76
2021/11/10 23:45:22;;;;;;;45.45;26.80;;;;;;;4.21;69.32;98610.75;10490944;28;20044;-77
2021/11/10 23:50:57;;;;;;;47.35;28.05;;;;;;;4.25;68.43;98621.50;10491229;28;20072;-76
2021/11/10 23:56:30;;;;;;;44.03;25.23;;;;;;;4.20;68.83;98620.31;10490544;28;20055;-78
